Time;durP1;ratioP1;P1;durP2;ratioP2;P2;SDS_P1;SDS_P2;PMS_P1;PMS_P2;Temp;Humidity;BMP_temperature;BMP_pressure;BME280_temperature;BME280_humidity;BME280_pressure;Samples;Min_cycle;Max_cycle;Signal;HPM_P1;HPM_P2
2024/01/04 00:26:45;;;;;;;11.82;3.40;;;;;;;15.41;67.68;95949.16;6154692;23;20020;-27
2024/01/04 00:42:38;;;;;;;10.45;2.75;;;;;;;15.24;68.23;95940.63;6153258;23;20056;-26
2024/01/04 01:12:47;;;;;;;13.57;2.88;;;;;;;15.33;67.52;95959.69;6155852;23;20025;-26
2024/01/04 01:28:40;;;;;;;11.93;2.15;;;;;;;15.32;67.70;95954.72;6155523;23;20064;-26
2024/01/04 01:42:06;;;;;;;11.93;2.90;;;;;;;15.41;67.44;95958.09;6156364;23;20033;-26
2024/01/04 01:58:51;;;;;;;12.32;2.55;;;;;;;15.42;67.05;95948.69;6155099;23;20416;-27
2024/01/04 02:28:10;;;;;;;11.50;2.25;;;;;;;15.46;66.66;95945.75;6155482;23;20064;-27
2024/01/04 02:44:02;;;;;;;11.52;2.80;;;;;;;15.43;66.37;95935.78;6153737;23;20036;-27
2024/01/04 02:59:54;;;;;;;11.07;2.42;;;;;;;15.32;66.83;95930.88;6154631;23;20024;-26
2024/01/04 03:13:06;;;;;;;9.25;1.98;;;;;;;15.29;66.72;95937.28;6155640;23;20016;-27
2024/01/04 03:28:58;;;;;;;9.88;2.30;;;;;;;15.22;66.94;95942.31;6154758;23;20387;-27
2024/01/04 03:44:52;;;;;;;12.20;2.30;;;;;;;15.44;66.16;95959.91;6153246;23;20091;-26
2024/01/04 04:14:11;;;;;;;10.85;2.78;;;;;;;15.30;66.56;95976.28;6155771;23;20395;-27
2024/01/04 04:30:05;;;;;;;9.05;3.03;;;;;;;15.58;65.07;95957.69;6156260;23;20044;-26
2024/01/04 04:45:58;;;;;;;11.77;2.45;;;;;;;15.46;65.08;95957.44;6155689;23;20374;-27
2024/01/04 04:59:23;;;;;;;12.13;2.28;;;;;;;15.46;64.36;95959.41;6156277;23;20020;-26
2024/01/04 05:15:35;;;;;;;11.57;2.90;;;;;;;15.31;63.93;95978.53;6155880;23;20028;-26
2024/01/04 05:31:27;;;;;;;6.18;1.88;;;;;;;15.26;63.85;96001.03;6155652;23;20016;-27
2024/01/04 06:01:39;;;;;;;8.65;2.90;;;;;;;15.01;63.21;96028.81;6155097;23;20117;-26
2024/01/04 06:30:57;;;;;;;13.65;3.20;;;;;;;15.15;62.61;96060.91;6155428;23;20016;-26
2024/01/04 06:46:50;;;;;;;8.02;3.35;;;;;;;15.11;62.56;96046.66;6153840;23;20029;-27
2024/01/04 07:02:42;;;;;;;8.18;3.50;;;;;;;15.16;62.55;96064.38;6154488;23;20016;-26
2024/01/04 07:15:53;;;;;;;17.00;2.55;;;;;;;15.24;61.92;96071.00;6155296;23;20078;-26
2024/01/04 07:31:46;;;;;;;7.40;2.20;;;;;;;15.28;61.10;96107.88;6154747;23;20340;-27
2024/01/04 07:47:39;;;;;;;9.27;2.58;;;;;;;15.07;62.46;96126.06;6153116;23;20039;-26
2024/01/04 08:16:58;;;;;;;4.53;2.10;;;;;;;15.07;63.25;96136.22;6156631;23;20355;-26
2024/01/04 08:32:51;;;;;;;7.25;3.20;;;;;;;15.07;64.14;96136.22;6156352;23;20059;-27
2024/01/04 08:48:44;;;;;;;29.30;17.40;;;;;;;15.15;63.59;96156.50;6154772;23;20060;-27
2024/01/04 09:02:04;;;;;;;10.27;5.55;;;;;;;15.36;59.38;96149.25;6156972;23;20012;-26
2024/01/04 09:17:57;;;;;;;8.63;2.78;;;;;;;24.13;35.02;96185.47;6155870;23;20458;-27
2024/01/04 09:33:50;;;;;;;9.30;2.38;;;;;;;27.97;28.98;96170.88;6155711;23;20024;-27
2024/01/04 10:04:07;;;;;;;13.32;2.40;;;;;;;17.89;49.78;96135.38;6155461;23;20020;-27
2024/01/04 10:34:17;;;;;;;8.77;1.70;;;;;;;16.47;54.09;96123.31;6154922;23;20067;-27
2024/01/04 10:50:11;;;;;;;12.38;1.85;;;;;;;16.35;54.96;96122.38;6154108;23;20024;-27
2024/01/04 11:03:23;;;;;;;11.27;1.88;;;;;;;16.17;56.38;96122.56;6155556;23;20183;-26
2024/01/04 11:19:16;;;;;;;5.90;1.77;;;;;;;16.06;56.83;96112.19;6155116;23;20072;-26
2024/01/04 11:35:11;;;;;;;8.45;1.55;;;;;;;16.26;55.95;96102.56;6154166;23;20071;-26
2024/01/04 12:04:55;;;;;;;7.57;1.80;;;;;;;16.09;56.24;96088.56;6154568;23;20469;-26
2024/01/04 12:20:48;;;;;;;8.60;2.00;;;;;;;16.16;56.11;96056.16;6154119;23;20049;-27
2024/01/04 12:50:09;;;;;;;10.57;2.35;;;;;;;16.17;55.91;96035.78;6155213;23;20091;-26
2024/01/04 13:06:02;;;;;;;6.85;1.70;;;;;;;16.06;55.75;96019.19;6156291;23;20387;-27
2024/01/04 13:21:55;;;;;;;8.32;2.75;;;;;;;16.01;56.32;96030.78;6155203;23;20017;-27
2024/01/04 13:35:12;;;;;;;8.48;2.50;;;;;;;16.29;55.31;96025.75;6156458;23;20507;-26
2024/01/04 13:51:07;;;;;;;10.00;3.42;;;;;;;15.99;55.85;96035.19;6154583;23;20467;-26
2024/01/04 14:06:59;;;;;;;10.18;2.00;;;;;;;16.20;55.59;96046.97;6155332;23;20124;-26
2024/01/04 14:36:20;;;;;;;8.70;2.00;;;;;;;15.96;56.06;96072.44;6155339;23;20020;-26
2024/01/04 14:52:13;;;;;;;10.57;3.28;;;;;;;15.91;56.12;96075.09;6153861;23;20032;-26
2024/01/04 15:08:05;;;;;;;13.70;4.85;;;;;;;16.07;56.00;96074.63;6153745;23;20076;-26
2024/01/04 15:21:23;;;;;;;10.93;4.00;;;;;;;16.18;56.10;96074.84;6155539;23;20016;-26
2024/01/04 15:37:36;;;;;;;14.38;5.57;;;;;;;15.94;57.00;96083.13;6154829;23;20024;-26
2024/01/04 15:53:28;;;;;;;15.90;6.85;;;;;;;16.09;56.31;96092.06;6152753;23;20028;-27
2024/01/04 16:06:52;;;;;;;16.25;6.85;;;;;;;16.02;55.00;96097.94;6155716;23;20020;-26
2024/01/04 16:22:45;;;;;;;37.40;18.42;;;;;;;16.09;54.81;96105.00;6155057;23;20343;-27
2024/01/04 16:38:38;;;;;;;41.92;19.52;;;;;;;15.93;55.22;96108.94;6156331;23;20565;-27
2024/01/04 17:08:23;;;;;;;20.85;10.02;;;;;;;15.80;54.93;96127.59;6156374;23;20052;-27
2024/01/04 17:24:16;;;;;;;16.02;6.85;;;;;;;15.98;54.80;96134.88;6155546;23;20497;-27
2024/01/04 17:53:35;;;;;;;20.40;7.85;;;;;;;15.76;57.58;96165.28;6154681;23;20028;-27
2024/01/04 18:09:27;;;;;;;29.58;26.05;;;;;;;15.85;58.11;96167.94;6155699;23;20020;-27
2024/01/04 18:25:19;;;;;;;65.78;59.85;;;;;;;15.74;58.90;96178.66;6154825;23;20080;-27
2024/01/04 18:38:40;;;;;;;70.32;54.00;;;;;;;15.74;59.12;96181.38;6156067;23;20017;-27
2024/01/04 18:54:32;;;;;;;20.23;9.85;;;;;;;15.68;59.13;96196.94;6153944;23;20036;-26
2024/01/04 19:10:24;;;;;;;180.48;82.63;;;;;;;15.71;58.43;96204.19;6154558;23;20044;-27
2024/01/04 19:26:17;;;;;;;89.75;81.30;;;;;;;15.59;58.41;96216.88;6154341;23;20477;-27
2024/01/04 19:39:18;;;;;;;22.23;15.73;;;;;;;15.68;57.96;96213.34;6155637;23;20065;-26
2024/01/04 19:55:13;;;;;;;10.20;4.53;;;;;;;15.62;58.59;96215.19;6153600;23;20035;-27
2024/01/04 20:11:08;;;;;;;237.05;112.03;;;;;;;15.63;59.13;96208.50;6157673;23;20031;-26
2024/01/04 20:40:27;;;;;;;9.75;4.40;;;;;;;15.89;57.10;96223.22;6157763;23;20016;-27
2024/01/04 20:56:20;;;;;;;18.48;6.82;;;;;;;15.66;57.10;96226.72;6156210;23;20076;-27
2024/01/04 21:12:13;;;;;;;18.60;8.02;;;;;;;15.71;57.50;96226.06;6155734;23;20048;-27
2024/01/04 21:25:31;;;;;;;16.58;4.90;;;;;;;15.53;58.05;96234.34;6156750;23;20059;-27
2024/01/04 21:41:23;;;;;;;77.50;27.83;;;;;;;15.53;57.10;96229.63;6155677;23;20348;-27
2024/01/04 21:57:16;;;;;;;20.48;8.50;;;;;;;15.45;57.58;96239.41;6154079;23;20028;-27
2024/01/04 22:27:13;;;;;;;15.55;4.88;;;;;;;15.65;57.03;96247.81;6155210;23;20060;-27
2024/01/04 22:43:07;;;;;;;13.30;5.13;;;;;;;15.25;57.98;96242.66;6154797;23;20020;-27
2024/01/04 22:56:34;;;;;;;12.82;4.35;;;;;;;15.59;57.42;96221.56;6155526;23;20020;-27
2024/01/04 23:13:15;;;;;;;13.40;4.05;;;;;;;15.34;57.25;96196.16;6125177;23;20037;-27
2024/01/04 23:42:35;;;;;;;12.73;2.88;;;;;;;15.26;57.55;96200.47;6125595;23;20090;-26
2024/01/04 23:58:26;;;;;;;13.57;3.63;;;;;;;15.35;57.33;96184.00;6146737;23;20052;-27
